Time;durP1;ratioP1;P1;durP2;ratioP2;P2;SDS_P1;SDS_P2;PMS_P1;PMS_P2;Temp;Humidity;BMP_temperature;BMP_pressure;BME280_temperature;BME280_humidity;BME280_pressure;Samples;Min_cycle;Max_cycle;Signal;HPM_P1;HPM_P2
2022/11/01 00:02:41;;;;;;;36.20;14.43;;;;;;;12.74;100.00;101031.44;6249789;28;20046;-71
2022/11/01 00:05:45;;;;;;;35.05;14.65;;;;;;;12.75;100.00;101033.13;6249417;28;20056;-71
2022/11/01 00:08:46;;;;;;;43.70;13.63;;;;;;;12.72;100.00;101014.88;6249756;28;20072;-71
2022/11/01 00:11:48;;;;;;;42.30;12.90;;;;;;;12.73;100.00;101018.34;6249541;28;20057;-71
2022/11/01 00:14:49;;;;;;;34.72;13.23;;;;;;;12.72;100.00;101011.34;6249361;28;20048;-71
2022/11/01 00:17:51;;;;;;;42.13;13.85;;;;;;;12.72;100.00;101006.94;6249580;28;20049;-71
2022/11/01 00:20:54;;;;;;;29.58;11.18;;;;;;;12.70;100.00;100999.09;6249197;28;20417;-71
2022/11/01 00:23:55;;;;;;;31.63;13.50;;;;;;;12.69;100.00;101000.06;6249043;28;20049;-71
2022/11/01 00:26:57;;;;;;;40.05;14.68;;;;;;;12.67;100.00;100991.41;6249238;28;20436;-71
2022/11/01 00:29:58;;;;;;;40.13;13.38;;;;;;;12.67;100.00;100988.75;6249071;28;20060;-71
2022/11/01 00:33:00;;;;;;;34.60;14.77;;;;;;;12.67;100.00;100990.53;6249148;28;20424;-71
2022/11/01 00:36:03;;;;;;;33.42;12.07;;;;;;;12.64;100.00;100978.38;6248991;28;20069;-71
2022/11/01 00:39:05;;;;;;;41.58;13.98;;;;;;;12.64;100.00;100982.81;6249144;28;20056;-71
2022/11/01 00:42:07;;;;;;;34.72;14.15;;;;;;;12.64;100.00;100988.94;6248719;28;20489;-71
2022/11/01 00:45:09;;;;;;;34.15;11.85;;;;;;;12.65;100.00;100966.03;6248514;28;20057;-71
2022/11/01 00:48:11;;;;;;;36.55;13.45;;;;;;;12.66;100.00;100963.31;6248575;28;20505;-70
2022/11/01 00:51:14;;;;;;;31.55;12.02;;;;;;;12.66;100.00;100968.59;6248487;28;20049;-71
2022/11/01 00:54:15;;;;;;;35.17;13.10;;;;;;;12.65;100.00;100966.88;6248507;28;20041;-71
2022/11/01 00:57:17;;;;;;;30.85;11.52;;;;;;;12.64;100.00;100962.56;6248270;28;20425;-71
2022/11/01 01:00:18;;;;;;;37.75;13.50;;;;;;;12.62;100.00;100961.78;6248300;28;20057;-71
2022/11/01 01:03:20;;;;;;;34.50;11.95;;;;;;;12.62;100.00;100958.31;6248521;28;20048;-71
2022/11/01 01:06:23;;;;;;;28.20;12.85;;;;;;;12.61;100.00;100962.72;6248079;28;20045;-71
2022/11/01 01:09:24;;;;;;;35.28;12.98;;;;;;;12.62;100.00;100956.50;6248555;28;20075;-71
2022/11/01 01:12:25;;;;;;;30.65;12.85;;;;;;;12.61;100.00;100956.63;6248095;28;20045;-71
2022/11/01 01:15:27;;;;;;;37.67;12.50;;;;;;;12.62;100.00;100953.03;6247586;28;20394;-71
2022/11/01 01:18:28;;;;;;;35.72;12.55;;;;;;;12.60;100.00;100958.41;6247982;28;20676;-71
2022/11/01 01:21:31;;;;;;;26.05;11.70;;;;;;;12.64;100.00;100953.81;6247992;28;20505;-71
2022/11/01 01:24:33;;;;;;;37.03;13.13;;;;;;;12.65;100.00;100952.88;6247555;28;20041;-71
2022/11/01 01:27:34;;;;;;;31.30;12.55;;;;;;;12.62;100.00;100943.34;6248263;28;20053;-71
2022/11/01 01:30:39;;;;;;;35.85;13.95;;;;;;;12.64;100.00;100933.56;6247445;28;20517;-71
2022/11/01 01:33:41;;;;;;;39.35;13.45;;;;;;;12.62;100.00;100918.75;6247740;28;20063;-70
2022/11/01 01:36:44;;;;;;;30.63;11.07;;;;;;;12.65;100.00;100918.59;6247516;28;20421;-71
2022/11/01 01:39:46;;;;;;;31.13;13.13;;;;;;;12.63;100.00;100925.75;6247668;28;20217;-71
2022/11/01 01:42:47;;;;;;;35.40;12.70;;;;;;;12.64;100.00;100916.91;6247524;28;20045;-71
2022/11/01 01:45:49;;;;;;;24.67;9.73;;;;;;;12.62;100.00;100909.06;6247519;28;20049;-71
2022/11/01 01:48:55;;;;;;;34.58;12.90;;;;;;;12.60;100.00;100910.94;6247326;28;20528;-71
2022/11/01 01:51:58;;;;;;;32.00;11.38;;;;;;;12.60;100.00;100900.41;6247465;28;20061;-71
2022/11/01 01:55:04;;;;;;;29.48;11.10;;;;;;;12.60;100.00;100887.22;6247053;28;20046;-71
2022/11/01 01:58:09;;;;;;;26.38;11.95;;;;;;;12.60;100.00;100887.22;6247112;28;20056;-71
2022/11/01 02:01:10;;;;;;;29.45;11.25;;;;;;;12.60;100.00;100875.84;6247149;28;20046;-71
2022/11/01 02:04:20;;;;;;;38.63;11.48;;;;;;;12.61;100.00;100873.09;6246652;28;20045;-71
2022/11/01 02:07:22;;;;;;;;;;;;;;;12.61;100.00;100877.53;6247813;28;20060;-71
2022/11/01 02:10:24;;;;;;;18.63;9.10;;;;;;;12.60;100.00;100876.66;6246689;28;19932;-71
2022/11/01 02:13:25;;;;;;;29.08;11.15;;;;;;;12.57;100.00;100874.22;6247835;28;20053;-71
2022/11/01 02:16:46;;;;;;;28.17;10.75;;;;;;;12.54;100.00;100869.16;6246398;28;20057;-71
2022/11/01 02:20:12;;;;;;;27.58;10.95;;;;;;;12.51;100.00;100858.78;6246270;28;20056;-71
2022/11/01 02:23:37;;;;;;;23.63;9.68;;;;;;;12.47;100.00;100851.97;6246909;28;20049;-71
2022/11/01 02:27:06;;;;;;;25.00;9.85;;;;;;;12.46;100.00;100841.53;6245952;28;20532;-71
2022/11/01 02:30:14;;;;;;;31.42;11.93;;;;;;;12.46;100.00;100842.38;6239874;28;20050;-71
2022/11/01 02:33:26;;;;;;;27.15;10.68;;;;;;;12.47;100.00;100837.97;6246534;28;20406;-71
2022/11/01 02:36:33;;;;;;;27.83;10.18;;;;;;;12.47;100.00;100844.06;6246343;28;20528;-71
2022/11/01 02:39:39;;;;;;;24.10;10.85;;;;;;;12.51;100.00;100847.38;6246546;28;20517;-71
2022/11/01 02:42:44;;;;;;;29.77;11.68;;;;;;;12.51;100.00;100856.13;6246671;28;20053;-71
2022/11/01 02:45:48;;;;;;;32.45;11.70;;;;;;;12.53;100.00;100856.03;6246141;28;20060;-71
2022/11/01 02:48:53;;;;;;;28.50;11.45;;;;;;;12.55;100.00;100841.00;6246499;28;20050;-71
2022/11/01 02:51:55;;;;;;;29.58;10.02;;;;;;;12.57;100.00;100845.22;6246229;28;20497;-71
2022/11/01 02:54:59;;;;;;;27.98;10.68;;;;;;;12.56;100.00;100847.94;6246528;28;20052;-71
2022/11/01 02:58:03;;;;;;;29.00;10.50;;;;;;;12.54;100.00;100834.03;6246261;28;20049;-71
2022/11/01 03:01:13;;;;;;;26.30;10.65;;;;;;;12.52;100.00;100826.19;6246256;28;20059;-71
2022/11/01 03:04:16;;;;;;;28.27;10.73;;;;;;;12.50;100.00;100833.34;6245928;28;20049;-71
2022/11/01 03:07:18;;;;;;;24.67;11.52;;;;;;;12.49;100.00;100841.34;6246406;28;20547;-72
2022/11/01 03:10:21;;;;;;;26.10;10.88;;;;;;;12.49;100.00;100842.22;6245805;28;20053;-71
2022/11/01 03:13:32;;;;;;;29.02;11.98;;;;;;;12.48;100.00;100834.38;6246688;28;20057;-71
2022/11/01 03:16:37;;;;;;;19.65;8.75;;;;;;;12.49;100.00;100834.31;6243962;28;20049;-71
2022/11/01 03:19:47;;;;;;;24.23;10.30;;;;;;;12.49;100.00;100830.78;6246276;28;20050;-70
2022/11/01 03:22:52;;;;;;;21.73;9.55;;;;;;;12.48;100.00;100831.75;6246119;28;20409;-71
2022/11/01 03:25:59;;;;;;;22.17;9.80;;;;;;;12.51;100.00;100832.41;6245931;28;20050;-71
2022/11/01 03:29:04;;;;;;;18.38;8.77;;;;;;;12.53;100.00;100827.88;6246061;28;20045;-71
2022/11/01 03:32:07;;;;;;;22.10;9.50;;;;;;;12.54;100.00;100820.84;6245648;28;20078;-71
2022/11/01 03:35:15;;;;;;;27.05;9.90;;;;;;;12.55;100.00;100804.09;6245723;28;20041;-71
2022/11/01 03:38:20;;;;;;;25.17;9.07;;;;;;;12.60;100.00;100815.19;6246011;28;20084;-71
2022/11/01 03:41:24;;;;;;;18.35;8.38;;;;;;;12.62;100.00;100813.28;6250245;28;20505;-71
2022/11/01 03:44:30;;;;;;;24.98;9.48;;;;;;;12.65;100.00;100806.06;6249956;28;20054;-71
2022/11/01 03:47:32;;;;;;;18.75;8.45;;;;;;;12.67;100.00;100820.00;6250087;28;20057;-71
2022/11/01 03:50:35;;;;;;;27.25;8.93;;;;;;;12.68;100.00;100824.34;6250031;28;20052;-71
2022/11/01 03:53:36;;;;;;;20.52;8.23;;;;;;;12.70;100.00;100814.53;6250061;28;20412;-71
2022/11/01 03:56:39;;;;;;;23.98;8.85;;;;;;;12.75;100.00;100826.59;6250201;28;20049;-71
2022/11/01 03:59:40;;;;;;;17.55;7.30;;;;;;;12.77;100.00;100820.28;6249647;28;20497;-70
2022/11/01 04:02:42;;;;;;;21.33;8.05;;;;;;;12.79;100.00;100820.19;6250136;28;20049;-71
2022/11/01 04:05:45;;;;;;;20.67;8.98;;;;;;;12.81;100.00;100824.44;6249467;28;20460;-71
2022/11/01 04:08:47;;;;;;;25.33;10.13;;;;;;;12.86;100.00;100827.63;6250069;28;20050;-71
2022/11/01 04:11:48;;;;;;;18.42;8.55;;;;;;;12.91;100.00;100833.47;6249140;28;20421;-71
2022/11/01 04:21:34;;;;;;;23.45;8.80;;;;;;;12.93;100.00;100828.09;6249227;28;20057;-71
2022/11/01 04:24:36;;;;;;;21.65;9.07;;;;;;;12.94;100.00;100819.22;6249097;28;20053;-71
2022/11/01 04:27:37;;;;;;;24.08;8.80;;;;;;;12.94;100.00;100813.94;6249540;28;20054;-71
2022/11/01 04:30:38;;;;;;;20.58;8.68;;;;;;;12.94;100.00;100813.94;6249052;28;20058;-71
2022/11/01 04:33:40;;;;;;;15.60;7.53;;;;;;;12.94;100.00;100832.41;6249365;28;20064;-71
2022/11/01 04:36:42;;;;;;;23.10;7.10;;;;;;;12.95;100.00;100821.78;6247439;28;20053;-71
2022/11/01 04:39:44;;;;;;;19.40;7.93;;;;;;;12.96;100.00;100809.44;6247303;28;20056;-70
2022/11/01 04:42:45;;;;;;;24.25;7.47;;;;;;;12.96;100.00;100812.09;6247466;28;20057;-71
2022/11/01 04:45:53;;;;;;;18.10;8.10;;;;;;;12.95;100.00;100818.31;6246878;28;20061;-70
2022/11/01 04:48:55;;;;;;;16.52;6.53;;;;;;;12.94;100.00;100817.47;6244464;28;20053;-71
2022/11/01 04:51:58;;;;;;;20.55;7.68;;;;;;;12.95;100.00;100816.53;6245923;28;20057;-71
2022/11/01 04:54:59;;;;;;;20.00;7.22;;;;;;;12.95;100.00;100823.59;6247151;28;20042;-71
2022/11/01 04:58:01;;;;;;;15.80;7.45;;;;;;;12.97;100.00;100826.13;6247016;28;20045;-71
2022/11/01 05:01:05;;;;;;;15.55;7.25;;;;;;;12.98;100.00;100817.25;6246970;28;20049;-70
2022/11/01 05:04:06;;;;;;;15.57;6.57;;;;;;;12.99;100.00;100826.84;6246908;28;20057;-71
2022/11/01 05:07:09;;;;;;;20.92;7.43;;;;;;;12.99;100.00;100811.91;6248723;28;20056;-71
2022/11/01 05:10:11;;;;;;;14.95;6.63;;;;;;;12.99;100.00;100825.09;6248273;28;20084;-71
2022/11/01 05:13:13;;;;;;;12.23;6.07;;;;;;;12.99;100.00;100817.19;6248378;28;20053;-71
2022/11/01 05:16:15;;;;;;;14.48;6.90;;;;;;;13.01;100.00;100807.38;6248019;28;20046;-71
2022/11/01 05:19:16;;;;;;;11.35;5.78;;;;;;;13.05;100.00;100808.88;6248312;28;20118;-71
2022/11/01 05:22:19;;;;;;;17.15;6.45;;;;;;;13.08;100.00;100816.59;6247932;28;20501;-71
2022/11/01 05:25:20;;;;;;;14.48;6.70;;;;;;;13.10;100.00;100819.13;6247731;28;20052;-71
2022/11/01 05:28:22;;;;;;;17.80;7.25;;;;;;;13.13;100.00;100818.94;6248044;28;20053;-71
2022/11/01 05:31:24;;;;;;;14.68;6.68;;;;;;;13.16;100.00;100822.22;6247643;28;20049;-71
2022/11/01 05:34:25;;;;;;;14.57;6.65;;;;;;;13.17;100.00;100831.84;6247526;28;20459;-71
2022/11/01 05:37:28;;;;;;;14.98;5.80;;;;;;;13.19;100.00;100835.25;6247763;28;20053;-71
2022/11/01 05:40:30;;;;;;;13.40;5.95;;;;;;;13.19;100.00;100837.88;6247597;28;20053;-71
2022/11/01 05:43:31;;;;;;;16.33;7.30;;;;;;;13.17;100.00;100837.13;6247527;28;20057;-71
2022/11/01 05:46:33;;;;;;;11.52;5.28;;;;;;;13.16;100.00;100840.69;6247660;28;20057;-71
2022/11/01 05:49:34;;;;;;;14.45;6.05;;;;;;;13.15;100.00;100839.00;6247617;28;20674;-71
2022/11/01 05:52:38;;;;;;;14.15;4.82;;;;;;;13.10;100.00;100838.44;6247176;28;20432;-71
2022/11/01 05:55:39;;;;;;;9.88;4.90;;;;;;;13.07;100.00;100845.69;6247041;28;20416;-71
2022/11/01 05:58:41;;;;;;;12.73;5.47;;;;;;;13.04;100.00;100841.47;6247236;28;20052;-71
2022/11/01 06:01:42;;;;;;;12.75;4.53;;;;;;;13.02;100.00;100843.34;6246832;28;20056;-71
2022/11/01 06:04:44;;;;;;;14.10;5.93;;;;;;;12.99;100.00;100851.47;6246879;28;20049;-71
2022/11/01 06:07:46;;;;;;;13.00;4.60;;;;;;;12.99;100.00;100855.88;6247467;28;20673;-71
2022/11/01 06:10:48;;;;;;;14.43;5.93;;;;;;;12.97;100.00;100855.97;6246876;28;20045;-71
2022/11/01 06:13:53;;;;;;;12.82;5.15;;;;;;;12.96;100.00;100862.22;6245947;28;20056;-71
2022/11/01 06:16:54;;;;;;;9.15;4.75;;;;;;;12.95;100.00;100863.16;6246482;28;20054;-71
2022/11/01 06:19:56;;;;;;;10.95;4.78;;;;;;;12.95;100.00;100873.72;6246482;28;20057;-71
2022/11/01 06:23:00;;;;;;;9.75;4.43;;;;;;;12.94;100.00;100866.72;6246728;28;20431;-71
2022/11/01 06:26:02;;;;;;;16.10;5.03;;;;;;;12.92;100.00;100871.25;6246350;28;20049;-71
2022/11/01 06:29:04;;;;;;;10.70;4.10;;;;;;;12.90;100.00;100871.34;6246618;28;20421;-71
2022/11/01 06:32:06;;;;;;;13.63;5.30;;;;;;;12.91;100.00;100872.19;6246406;28;20045;-73
2022/11/01 06:35:08;;;;;;;6.57;3.90;;;;;;;12.91;100.00;100873.03;6244500;28;20045;-71
2022/11/01 06:38:11;;;;;;;10.15;3.63;;;;;;;12.95;100.00;100876.34;6246374;28;20048;-70
2022/11/01 06:41:12;;;;;;;8.68;3.88;;;;;;;12.98;100.00;100873.50;6246291;28;20052;-71
2022/11/01 06:44:14;;;;;;;8.55;4.28;;;;;;;13.01;100.00;100872.47;6246415;28;20421;-70
2022/11/01 06:47:15;;;;;;;9.60;3.35;;;;;;;13.02;100.00;100890.00;6246434;28;20057;-71
2022/11/01 06:50:17;;;;;;;8.70;3.80;;;;;;;13.06;100.00;100891.50;6246229;28;20060;-71
2022/11/01 06:53:19;;;;;;;7.22;3.75;;;;;;;13.14;100.00;100898.00;6246710;28;20056;-71
2022/11/01 06:56:21;;;;;;;7.07;3.53;;;;;;;13.18;100.00;100901.31;6246206;28;20049;-71
2022/11/01 06:59:22;;;;;;;7.20;4.45;;;;;;;13.20;100.00;100896.78;6246350;28;20049;-71
2022/11/01 07:02:24;;;;;;;7.28;3.03;;;;;;;13.21;100.00;100899.31;6245424;28;20049;-71
2022/11/01 07:05:26;;;;;;;6.95;2.55;;;;;;;13.26;100.00;100904.34;6245772;28;20084;-71
2022/11/01 07:08:29;;;;;;;8.27;2.72;;;;;;;13.32;100.00;100909.25;6246274;28;20055;-70
2022/11/01 07:11:30;;;;;;;4.75;2.90;;;;;;;13.42;100.00;100913.00;6245646;28;20061;-70
2022/11/01 07:14:32;;;;;;;5.20;2.85;;;;;;;13.53;100.00;100916.75;6248017;28;20401;-70
2022/11/01 07:17:33;;;;;;;8.52;2.47;;;;;;;13.61;100.00;100923.25;6250891;28;20520;-71
2022/11/01 07:20:40;;;;;;;5.15;3.03;;;;;;;13.66;100.00;100921.16;6250525;28;20049;-71
2022/11/01 07:23:43;;;;;;;3.88;2.35;;;;;;;13.73;100.00;100934.00;6250062;28;20489;-72
2022/11/01 07:26:45;;;;;;;6.22;3.15;;;;;;;13.78;100.00;100930.13;6250582;28;20132;-71
2022/11/01 07:29:46;;;;;;;5.45;2.63;;;;;;;13.83;100.00;100933.31;6249514;28;20131;-70
2022/11/01 07:32:48;;;;;;;4.22;2.50;;;;;;;13.89;100.00;100932.06;6250621;28;20057;-70
2022/11/01 07:35:49;;;;;;;6.57;2.80;;;;;;;13.95;100.00;100948.38;6250485;28;20041;-70
2022/11/01 07:38:52;;;;;;;7.43;2.70;;;;;;;14.08;100.00;100948.44;6250381;28;20049;-70
2022/11/01 07:41:53;;;;;;;5.43;3.13;;;;;;;14.16;100.00;100945.28;6250365;28;20076;-70
2022/11/01 07:44:55;;;;;;;5.20;2.30;;;;;;;14.22;100.00;100952.84;6250246;28;20053;-70
2022/11/01 07:47:58;;;;;;;4.03;2.60;;;;;;;14.28;100.00;100963.00;6250497;28;20630;-70
2022/11/01 07:51:01;;;;;;;7.22;2.75;;;;;;;14.27;100.00;100966.59;6249867;28;20053;-70
2022/11/01 07:54:04;;;;;;;3.58;2.35;;;;;;;14.31;100.00;100961.97;6250115;28;20060;-70
2022/11/01 07:57:05;;;;;;;10.30;3.10;;;;;;;14.34;100.00;100965.22;6250121;28;20056;-70
2022/11/01 08:00:09;;;;;;;3.15;2.05;;;;;;;14.37;100.00;100970.34;6249892;28;20532;-70
2022/11/01 08:03:12;;;;;;;12.88;2.70;;;;;;;14.47;100.00;100973.22;6250062;28;20045;-70
2022/11/01 08:06:14;;;;;;;8.43;2.92;;;;;;;14.52;100.00;100967.66;6249953;28;20046;-70
2022/11/01 08:09:16;;;;;;;7.10;2.28;;;;;;;14.51;100.00;100964.16;6249324;28;20048;-71
2022/11/01 08:12:18;;;;;;;5.50;2.60;;;;;;;14.52;100.00;100970.28;6249098;28;20061;-70
2022/11/01 08:15:19;;;;;;;4.15;2.17;;;;;;;14.54;100.00;100971.06;6244781;28;20038;-71
2022/11/01 08:18:23;;;;;;;4.32;2.47;;;;;;;14.54;100.00;100973.69;6243681;28;20046;-71
2022/11/01 08:21:24;;;;;;;7.53;2.45;;;;;;;14.59;100.00;100982.19;6238676;28;20042;-71
2022/11/01 08:24:27;;;;;;;2.75;1.85;;;;;;;14.60;100.00;100984.72;6239044;28;20060;-71
2022/11/01 08:27:29;;;;;;;3.97;2.13;;;;;;;14.67;100.00;100975.44;6249577;28;20051;-71
2022/11/01 08:30:30;;;;;;;4.40;2.45;;;;;;;14.74;100.00;100967.06;6249084;28;20523;-71
2022/11/01 08:33:32;;;;;;;7.38;2.20;;;;;;;14.81;100.00;100976.31;6249186;28;20658;-73
2022/11/01 08:36:33;;;;;;;10.65;2.60;;;;;;;14.87;100.00;100992.59;6248676;28;20497;-71
2022/11/01 08:39:37;;;;;;;6.28;2.38;;;;;;;14.94;100.00;101000.97;6249348;28;20045;-71
2022/11/01 08:42:38;;;;;;;3.03;1.60;;;;;;;15.04;100.00;101001.22;6248815;28;20124;-72
2022/11/01 08:45:40;;;;;;;2.78;2.08;;;;;;;15.09;100.00;101001.75;6248491;28;20069;-71
2022/11/01 08:48:41;;;;;;;6.38;2.20;;;;;;;15.13;100.00;101003.22;6243186;28;20421;-71
2022/11/01 08:51:43;;;;;;;3.00;1.88;;;;;;;15.26;100.00;101005.88;6236184;28;20046;-71
2022/11/01 08:54:45;;;;;;;3.20;2.08;;;;;;;15.32;100.00;101016.91;6245808;28;20046;-71
2022/11/01 08:57:47;;;;;;;3.40;1.60;;;;;;;15.36;100.00;101018.38;6248462;28;20056;-71
2022/11/01 09:00:48;;;;;;;2.28;1.25;;;;;;;15.42;100.00;101015.31;6248589;28;20050;-71
2022/11/01 09:03:50;;;;;;;3.85;1.15;;;;;;;15.49;100.00;101031.63;6247994;28;20059;-71
2022/11/01 09:06:51;;;;;;;7.68;1.58;;;;;;;15.55;100.00;101031.19;6248582;28;20046;-71
2022/11/01 09:09:54;;;;;;;3.78;1.30;;;;;;;15.56;100.00;101038.19;6247982;28;20055;-72
2022/11/01 09:12:56;;;;;;;3.03;1.02;;;;;;;15.57;100.00;101041.66;6248784;28;20045;-72
2022/11/01 09:15:58;;;;;;;4.10;1.17;;;;;;;15.64;100.00;101035.88;6248168;28;20440;-72
2022/11/01 09:19:00;;;;;;;5.50;1.55;;;;;;;15.67;100.00;101042.78;6248201;28;20049;-72
2022/11/01 09:22:02;;;;;;;2.88;1.15;;;;;;;15.78;100.00;101047.31;6248056;28;20049;-71
2022/11/01 09:25:05;;;;;;;2.38;1.20;;;;;;;15.79;100.00;101056.97;6247301;28;20050;-72
2022/11/01 09:28:07;;;;;;;4.93;1.10;;;;;;;15.83;100.00;101063.75;6246907;28;20041;-72
2022/11/01 09:31:12;;;;;;;3.40;1.40;;;;;;;15.81;100.00;101066.50;6246726;28;20111;-72
2022/11/01 09:34:13;;;;;;;2.28;1.00;;;;;;;15.67;100.00;101071.94;6247884;28;20060;-71
2022/11/01 09:37:15;;;;;;;5.38;1.20;;;;;;;15.67;100.00;101085.19;6246944;28;20045;-72
2022/11/01 09:40:18;;;;;;;1.33;1.20;;;;;;;15.68;100.00;101087.72;6247695;28;20069;-71
2022/11/01 09:43:25;;;;;;;2.40;1.20;;;;;;;15.76;97.77;101100.44;6247471;28;20060;-71
2022/11/01 09:46:31;;;;;;;3.08;1.10;;;;;;;15.80;95.13;101093.94;6247409;28;20049;-71
2022/11/01 09:49:36;;;;;;;3.38;0.73;;;;;;;15.66;95.19;101100.19;6247907;28;20049;-71
2022/11/01 09:52:40;;;;;;;1.40;0.88;;;;;;;15.62;96.45;101106.63;6247525;28;20049;-71
2022/11/01 09:55:49;;;;;;;5.47;1.58;;;;;;;15.59;96.60;101106.00;6247206;28;20536;-72
2022/11/01 09:59:01;;;;;;;1.40;1.00;;;;;;;15.64;97.85;101103.94;6247152;28;20415;-72
2022/11/01 10:02:24;;;;;;;2.08;1.05;;;;;;;15.65;98.27;101111.75;6247146;28;20049;-72
2022/11/01 10:05:41;;;;;;;3.92;1.42;;;;;;;15.80;89.01;101101.03;6246916;28;20046;-74
2022/11/01 10:08:53;;;;;;;4.03;1.40;;;;;;;15.97;79.98;101098.06;6246980;28;20049;-72
2022/11/01 10:12:09;;;;;;;0.63;0.63;;;;;;;16.09;71.73;101101.66;6246950;28;20052;-72
2022/11/01 10:15:28;;;;;;;2.55;0.70;;;;;;;16.18;70.04;101114.28;6246612;28;20049;-72
2022/11/01 10:18:31;;;;;;;3.13;0.80;;;;;;;16.14;67.05;101111.00;6242737;28;20049;-72
2022/11/01 10:21:41;;;;;;;1.25;0.73;;;;;;;16.12;68.24;101127.94;6244951;28;20046;-72
2022/11/01 10:24:47;;;;;;;2.55;0.63;;;;;;;16.15;66.95;101133.91;6241749;28;20091;-72
2022/11/01 10:28:06;;;;;;;1.70;0.43;;;;;;;16.12;68.64;101141.22;6239927;28;20053;-72
2022/11/01 10:31:14;;;;;;;2.05;0.60;;;;;;;16.14;66.82;101142.81;6244995;28;20045;-72
2022/11/01 10:34:22;;;;;;;2.95;0.73;;;;;;;16.14;65.88;101150.75;6240654;28;20049;-74
2022/11/01 10:37:29;;;;;;;2.35;0.50;;;;;;;16.06;66.95;101145.16;6244806;28;20041;-74
2022/11/01 10:40:36;;;;;;;2.55;1.23;;;;;;;16.02;65.89;101159.56;6244659;28;20041;-72
2022/11/01 10:43:43;;;;;;;4.32;0.57;;;;;;;16.06;66.46;101168.16;6242450;28;20555;-71
2022/11/01 10:46:49;;;;;;;3.50;0.80;;;;;;;16.08;68.46;101175.06;6244875;28;20045;-74
2022/11/01 10:49:54;;;;;;;5.97;0.77;;;;;;;16.13;66.14;101175.59;6247391;28;20056;-73
2022/11/01 10:52:59;;;;;;;2.40;0.57;;;;;;;16.15;64.45;101173.66;6250418;28;20041;-74
2022/11/01 10:56:07;;;;;;;7.05;0.98;;;;;;;16.24;62.60;101170.38;6247299;28;20045;-75
2022/11/01 10:59:17;;;;;;;0.80;0.47;;;;;;;16.36;60.05;101173.13;6249985;28;20064;-74
2022/11/01 11:02:22;;;;;;;;;;;;;;;16.32;60.94;101185.75;6247223;28;20057;-73
2022/11/01 11:05:25;;;;;;;7.63;0.65;;;;;;;16.39;61.00;101175.53;6249341;28;20422;-75
2022/11/01 11:08:27;;;;;;;1.13;0.40;;;;;;;16.43;60.74;101177.88;6249222;28;20053;-73
2022/11/01 11:11:35;;;;;;;1.05;0.40;;;;;;;16.42;60.26;101178.00;6246815;28;20994;-75
2022/11/01 11:14:40;;;;;;;3.50;0.40;;;;;;;16.53;59.74;101191.31;6244812;28;20049;-74
2022/11/01 11:17:43;;;;;;;3.25;0.50;;;;;;;16.56;60.44;101200.88;6249202;28;20045;-73
2022/11/01 11:20:51;;;;;;;5.22;0.68;;;;;;;16.59;62.12;101204.19;6249073;28;20050;-75
2022/11/01 11:23:52;;;;;;;2.30;0.38;;;;;;;16.71;60.48;101205.09;6246438;28;20409;-74
2022/11/01 11:26:56;;;;;;;4.57;0.55;;;;;;;16.74;58.93;101207.56;6246147;28;20508;-76
2022/11/01 11:30:03;;;;;;;2.85;0.57;;;;;;;16.75;59.60;101203.94;6345664;22;20061;-73
2022/11/01 11:33:04;;;;;;;2.15;0.68;;;;;;;16.82;59.23;101213.19;6252064;28;20056;-75
2022/11/01 11:36:07;;;;;;;3.83;0.75;;;;;;;16.94;58.23;101220.25;6250751;28;20049;-75
2022/11/01 11:39:24;;;;;;;3.20;0.85;;;;;;;17.02;57.06;101226.81;6250422;28;20053;-75
2022/11/01 11:42:26;;;;;;;3.65;0.68;;;;;;;17.04;57.61;101223.09;6250597;28;20049;-74
2022/11/01 11:45:30;;;;;;;1.73;0.32;;;;;;;17.13;58.19;101226.88;6250161;28;20049;-74
2022/11/01 11:48:31;;;;;;;2.55;0.40;;;;;;;17.10;57.92;101230.59;6250344;28;20059;-74
2022/11/01 11:51:36;;;;;;;3.50;0.60;;;;;;;16.95;58.08;101234.38;6250154;28;20050;-76
2022/11/01 11:54:41;;;;;;;4.28;0.70;;;;;;;16.91;58.94;101236.41;6250032;28;20049;-75
2022/11/01 11:57:51;;;;;;;1.55;0.55;;;;;;;16.83;59.20;101230.78;6250196;28;20050;-74
2022/11/01 12:01:01;;;;;;;2.67;0.70;;;;;;;16.85;58.59;101243.94;6249822;28;20152;-74
2022/11/01 12:04:07;;;;;;;1.67;0.52;;;;;;;16.99;58.62;101241.16;6250057;28;20132;-74
2022/11/01 12:07:23;;;;;;;4.40;0.60;;;;;;;17.03;58.65;101239.13;6250900;28;20069;-75
2022/11/01 12:10:31;;;;;;;8.05;0.57;;;;;;;17.05;59.30;101239.88;6249523;28;20057;-75
2022/11/01 12:13:36;;;;;;;3.70;0.70;;;;;;;17.13;58.42;101248.97;6250028;28;20053;-75
2022/11/01 12:16:41;;;;;;;1.67;0.75;;;;;;;17.19;57.32;101240.56;6249428;28;20116;-73
2022/11/01 12:19:43;;;;;;;8.18;0.70;;;;;;;17.10;59.23;101249.19;6249454;28;20049;-76
2022/11/01 12:22:50;;;;;;;1.08;0.40;;;;;;;17.15;59.20;101246.19;6252489;28;20045;-75
2022/11/01 12:25:52;;;;;;;3.13;0.70;;;;;;;17.11;60.03;101248.22;6261567;28;20056;-75
2022/11/01 12:29:01;;;;;;;2.35;0.60;;;;;;;17.23;59.83;101250.00;6249227;28;20057;-75
2022/11/01 12:32:11;;;;;;;2.43;0.77;;;;;;;17.04;60.89;101254.13;6249022;28;20046;-76
2022/11/01 12:35:21;;;;;;;2.25;0.52;;;;;;;17.06;61.58;101252.19;6248824;28;20072;-75
2022/11/01 12:38:43;;;;;;;1.27;0.60;;;;;;;17.11;61.33;101236.75;6249370;28;20049;-75
2022/11/01 12:41:50;;;;;;;6.22;0.80;;;;;;;17.08;61.01;101243.16;6249154;28;20095;-73
2022/11/01 12:44:56;;;;;;;4.10;0.82;;;;;;;16.97;61.91;101241.25;6248620;28;20413;-77
2022/11/01 12:48:02;;;;;;;5.82;0.80;;;;;;;17.16;62.26;101232.78;6248795;28;20072;-75
2022/11/01 12:51:13;;;;;;;2.28;0.70;;;;;;;17.36;61.21;101239.31;6248611;28;20072;-77
2022/11/01 12:54:20;;;;;;;2.88;0.80;;;;;;;17.44;60.84;101239.59;6248562;28;20459;-75
2022/11/01 12:57:22;;;;;;;4.50;1.67;;;;;;;17.47;61.18;101244.66;6248788;28;20054;-77
2022/11/01 13:00:30;;;;;;;6.18;1.10;;;;;;;17.58;60.09;101243.91;6248275;28;20091;-77
2022/11/01 13:03:44;;;;;;;7.03;0.75;;;;;;;17.53;60.60;101230.06;6248633;28;20525;-76
2022/11/01 13:07:04;;;;;;;6.57;0.88;;;;;;;17.67;59.92;101229.06;6248423;28;20053;-75
2022/11/01 13:10:13;;;;;;;8.68;1.38;;;;;;;17.76;60.18;101247.00;6247849;28;20052;-76
2022/11/01 13:13:24;;;;;;;6.93;0.80;;;;;;;17.96;58.11;101240.16;6247757;28;20437;-75
2022/11/01 13:16:31;;;;;;;5.55;0.57;;;;;;;17.86;59.54;101247.16;6247682;28;20420;-76
2022/11/01 13:19:43;;;;;;;6.40;0.60;;;;;;;17.82;59.59;101241.22;6248297;28;20052;-74
2022/11/01 13:22:50;;;;;;;6.78;1.58;;;;;;;17.91;59.04;101243.19;6251199;28;20055;-76
2022/11/01 13:25:59;;;;;;;2.75;0.70;;;;;;;17.88;59.20;101243.41;6260224;28;20045;-76
2022/11/01 13:29:10;;;;;;;4.57;0.65;;;;;;;17.96;58.96;101254.31;6247857;28;20068;-74
2022/11/01 13:32:19;;;;;;;1.77;0.50;;;;;;;17.93;60.53;101249.22;6247374;28;20163;-77
2022/11/01 13:35:31;;;;;;;;;;;;;;;17.95;60.15;101249.97;6246486;28;20045;-75
2022/11/01 13:38:41;;;;;;;9.07;1.13;;;;;;;17.95;60.48;101241.97;6246760;28;20300;-78
2022/11/01 13:41:50;;;;;;;5.03;0.88;;;;;;;18.04;59.86;101252.88;6239430;28;20048;-78
2022/11/01 13:45:03;;;;;;;3.40;1.00;;;;;;;17.97;60.03;101245.34;6247541;28;20504;-77
2022/11/01 13:48:13;;;;;;;8.25;0.90;;;;;;;17.95;60.43;101243.78;6244498;28;20045;-77
2022/11/01 13:51:31;;;;;;;8.52;0.80;;;;;;;17.85;61.74;101251.63;6246426;28;20060;-77
2022/11/01 13:54:39;;;;;;;3.60;0.80;;;;;;;17.76;62.81;101265.63;6244870;28;20045;-78
2022/11/01 13:57:43;;;;;;;3.20;0.90;;;;;;;17.67;62.18;101263.63;6239484;28;20045;-75
2022/11/01 14:00:48;;;;;;;7.57;0.82;;;;;;;17.59;63.09;101274.81;6246911;28;20049;-74
2022/11/01 14:04:07;;;;;;;2.20;0.45;;;;;;;17.38;64.13;101261.28;6246986;28;20081;-75
2022/11/01 14:07:17;;;;;;;4.03;0.70;;;;;;;17.31;63.78;101276.00;6247457;28;20049;-74
2022/11/01 14:10:46;;;;;;;4.28;0.70;;;;;;;17.25;63.84;101279.09;6246967;28;20060;-76
2022/11/01 14:13:48;;;;;;;9.82;1.00;;;;;;;17.15;63.37;101281.56;6246712;28;20065;-76